sensor_id;sensor_type;location;lat;lon;timestamp;P1;durP1;ratioP1;P2;durP2;ratioP2
52934;SDS011;38802;50.198;19.796;2022-12-29T00:01:01;6.90;;;4.00;;
52934;SDS011;38802;50.198;19.796;2022-12-29T00:03:29;4.40;;;3.80;;
52934;SDS011;38802;50.198;19.796;2022-12-29T00:05:58;5.00;;;3.30;;
52934;SDS011;38802;50.198;19.796;2022-12-29T00:08:26;4.20;;;3.70;;
52934;SDS011;38802;50.198;19.796;2022-12-29T00:11:09;6.10;;;3.60;;
52934;SDS011;38802;50.198;19.796;2022-12-29T00:13:39;5.40;;;4.20;;
52934;SDS011;38802;50.198;19.796;2022-12-29T00:16:26;4.50;;;4.00;;
52934;SDS011;38802;50.198;19.796;2022-12-29T00:18:55;4.30;;;3.90;;
52934;SDS011;38802;50.198;19.796;2022-12-29T00:21:23;4.80;;;3.50;;
52934;SDS011;38802;50.198;19.796;2022-12-29T00:24:12;4.30;;;3.40;;
52934;SDS011;38802;50.198;19.796;2022-12-29T00:26:42;4.70;;;3.80;;
52934;SDS011;38802;50.198;19.796;2022-12-29T00:29:29;4.00;;;3.50;;
52934;SDS011;38802;50.198;19.796;2022-12-29T00:32:16;3.50;;;3.30;;
52934;SDS011;38802;50.198;19.796;2022-12-29T00:35:04;4.30;;;3.50;;
52934;SDS011;38802;50.198;19.796;2022-12-29T00:37:40;4.70;;;3.20;;
52934;SDS011;38802;50.198;19.796;2022-12-29T00:40:29;4.10;;;3.30;;
52934;SDS011;38802;50.198;19.796;2022-12-29T00:43:16;4.60;;;3.80;;
52934;SDS011;38802;50.198;19.796;2022-12-29T00:46:03;4.50;;;3.50;;
52934;SDS011;38802;50.198;19.796;2022-12-29T00:48:32;4.30;;;3.70;;
52934;SDS011;38802;50.198;19.796;2022-12-29T00:51:19;3.60;;;3.30;;
52934;SDS011;38802;50.198;19.796;2022-12-29T00:53:47;4.50;;;3.60;;
52934;SDS011;38802;50.198;19.796;2022-12-29T00:56:15;5.70;;;3.90;;
52934;SDS011;38802;50.198;19.796;2022-12-29T00:58:44;4.70;;;3.60;;
52934;SDS011;38802;50.198;19.796;2022-12-29T01:01:12;3.50;;;3.00;;
52934;SDS011;38802;50.198;19.796;2022-12-29T01:03:41;3.90;;;3.20;;
52934;SDS011;38802;50.198;19.796;2022-12-29T01:06:10;4.60;;;3.50;;
52934;SDS011;38802;50.198;19.796;2022-12-29T01:08:38;4.10;;;3.70;;
52934;SDS011;38802;50.198;19.796;2022-12-29T01:11:08;6.20;;;3.70;;
52934;SDS011;38802;50.198;19.796;2022-12-29T01:13:38;4.60;;;3.30;;
52934;SDS011;38802;50.198;19.796;2022-12-29T01:16:08;3.40;;;3.10;;
52934;SDS011;38802;50.198;19.796;2022-12-29T01:18:37;3.80;;;3.40;;
52934;SDS011;38802;50.198;19.796;2022-12-29T01:21:05;3.70;;;3.20;;
52934;SDS011;38802;50.198;19.796;2022-12-29T01:23:33;4.40;;;3.70;;
52934;SDS011;38802;50.198;19.796;2022-12-29T01:26:12;3.30;;;3.10;;
52934;SDS011;38802;50.198;19.796;2022-12-29T01:28:42;4.30;;;3.90;;
52934;SDS011;38802;50.198;19.796;2022-12-29T01:31:12;3.90;;;3.40;;
52934;SDS011;38802;50.198;19.796;2022-12-29T01:33:42;3.80;;;3.50;;
52934;SDS011;38802;50.198;19.796;2022-12-29T01:36:12;7.40;;;3.70;;
52934;SDS011;38802;50.198;19.796;2022-12-29T01:38:43;3.30;;;3.00;;
52934;SDS011;38802;50.198;19.796;2022-12-29T01:41:13;4.70;;;3.60;;
52934;SDS011;38802;50.198;19.796;2022-12-29T01:51:37;6.40;;;3.50;;
52934;SDS011;38802;50.198;19.796;2022-12-29T01:54:22;5.30;;;4.20;;
52934;SDS011;38802;50.198;19.796;2022-12-29T01:56:56;5.30;;;4.00;;
52934;SDS011;38802;50.198;19.796;2022-12-29T01:59:28;3.80;;;3.50;;
52934;SDS011;38802;50.198;19.796;2022-12-29T02:02:00;7.10;;;4.10;;
52934;SDS011;38802;50.198;19.796;2022-12-29T02:04:29;3.80;;;3.40;;
52934;SDS011;38802;50.198;19.796;2022-12-29T02:07:01;4.90;;;4.20;;
52934;SDS011;38802;50.198;19.796;2022-12-29T02:09:35;4.20;;;3.40;;
52934;SDS011;38802;50.198;19.796;2022-12-29T02:12:03;5.40;;;3.60;;
52934;SDS011;38802;50.198;19.796;2022-12-29T02:14:32;3.80;;;3.20;;
52934;SDS011;38802;50.198;19.796;2022-12-29T02:28:49;3.80;;;3.30;;
52934;SDS011;38802;50.198;19.796;2022-12-29T02:34:44;4.00;;;3.70;;
52934;SDS011;38802;50.198;19.796;2022-12-29T02:37:35;3.30;;;3.00;;
52934;SDS011;38802;50.198;19.796;2022-12-29T02:40:17;4.50;;;3.40;;
52934;SDS011;38802;50.198;19.796;2022-12-29T02:42:59;3.20;;;2.80;;
52934;SDS011;38802;50.198;19.796;2022-12-29T02:45:47;4.20;;;2.70;;
52934;SDS011;38802;50.198;19.796;2022-12-29T02:48:32;3.50;;;3.10;;
52934;SDS011;38802;50.198;19.796;2022-12-29T02:51:51;5.90;;;3.70;;
52934;SDS011;38802;50.198;19.796;2022-12-29T02:54:20;5.00;;;3.00;;
52934;SDS011;38802;50.198;19.796;2022-12-29T02:59:49;6.00;;;3.70;;
52934;SDS011;38802;50.198;19.796;2022-12-29T03:13:44;4.50;;;3.10;;
52934;SDS011;38802;50.198;19.796;2022-12-29T03:16:40;4.50;;;3.50;;
52934;SDS011;38802;50.198;19.796;2022-12-29T03:21:43;4.00;;;3.60;;
52934;SDS011;38802;50.198;19.796;2022-12-29T03:24:42;5.00;;;3.70;;
52934;SDS011;38802;50.198;19.796;2022-12-29T03:27:19;4.00;;;3.60;;
52934;SDS011;38802;50.198;19.796;2022-12-29T03:29:55;7.80;;;4.00;;
52934;SDS011;38802;50.198;19.796;2022-12-29T03:32:31;4.50;;;3.70;;
52934;SDS011;38802;50.198;19.796;2022-12-29T03:35:03;4.60;;;4.10;;
52934;SDS011;38802;50.198;19.796;2022-12-29T03:37:45;4.10;;;3.60;;
52934;SDS011;38802;50.198;19.796;2022-12-29T03:42:51;3.40;;;3.00;;
52934;SDS011;38802;50.198;19.796;2022-12-29T03:45:21;5.50;;;3.70;;
52934;SDS011;38802;50.198;19.796;2022-12-29T03:47:50;5.30;;;3.50;;
52934;SDS011;38802;50.198;19.796;2022-12-29T03:50:20;4.40;;;3.50;;
52934;SDS011;38802;50.198;19.796;2022-12-29T03:52:48;4.10;;;3.10;;
52934;SDS011;38802;50.198;19.796;2022-12-29T03:55:16;4.30;;;4.00;;
52934;SDS011;38802;50.198;19.796;2022-12-29T03:57:45;4.10;;;3.70;;
52934;SDS011;38802;50.198;19.796;2022-12-29T04:00:18;5.00;;;3.60;;
52934;SDS011;38802;50.198;19.796;2022-12-29T04:02:49;3.50;;;3.20;;
52934;SDS011;38802;50.198;19.796;2022-12-29T04:05:21;5.10;;;3.60;;
52934;SDS011;38802;50.198;19.796;2022-12-29T04:07:52;3.40;;;3.10;;
52934;SDS011;38802;50.198;19.796;2022-12-29T04:10:20;3.10;;;2.60;;
52934;SDS011;38802;50.198;19.796;2022-12-29T04:12:51;3.90;;;3.50;;
52934;SDS011;38802;50.198;19.796;2022-12-29T04:15:20;3.50;;;3.10;;
52934;SDS011;38802;50.198;19.796;2022-12-29T04:17:48;4.30;;;3.10;;
52934;SDS011;38802;50.198;19.796;2022-12-29T04:20:17;4.30;;;3.40;;
52934;SDS011;38802;50.198;19.796;2022-12-29T04:23:07;3.60;;;3.30;;
52934;SDS011;38802;50.198;19.796;2022-12-29T04:25:36;3.60;;;3.20;;
52934;SDS011;38802;50.198;19.796;2022-12-29T04:28:04;3.40;;;3.00;;
52934;SDS011;38802;50.198;19.796;2022-12-29T04:30:48;3.80;;;3.40;;
52934;SDS011;38802;50.198;19.796;2022-12-29T04:33:22;3.90;;;3.00;;
52934;SDS011;38802;50.198;19.796;2022-12-29T04:35:53;5.10;;;2.50;;
52934;SDS011;38802;50.198;19.796;2022-12-29T04:38:23;3.20;;;2.90;;
52934;SDS011;38802;50.198;19.796;2022-12-29T04:40:52;4.50;;;4.10;;
52934;SDS011;38802;50.198;19.796;2022-12-29T04:43:23;5.90;;;3.50;;
52934;SDS011;38802;50.198;19.796;2022-12-29T04:46:20;3.70;;;3.30;;
52934;SDS011;38802;50.198;19.796;2022-12-29T04:48:56;4.90;;;4.00;;
52934;SDS011;38802;50.198;19.796;2022-12-29T04:51:59;5.80;;;3.30;;
52934;SDS011;38802;50.198;19.796;2022-12-29T04:54:28;4.30;;;3.20;;
52934;SDS011;38802;50.198;19.796;2022-12-29T04:57:06;4.00;;;3.00;;
52934;SDS011;38802;50.198;19.796;2022-12-29T04:59:37;4.50;;;3.70;;
52934;SDS011;38802;50.198;19.796;2022-12-29T05:02:05;3.90;;;3.50;;
52934;SDS011;38802;50.198;19.796;2022-12-29T05:04:35;4.20;;;3.80;;
52934;SDS011;38802;50.198;19.796;2022-12-29T05:07:03;4.60;;;3.20;;
52934;SDS011;38802;50.198;19.796;2022-12-29T05:09:32;3.90;;;3.50;;
52934;SDS011;38802;50.198;19.796;2022-12-29T05:12:01;5.70;;;3.90;;
52934;SDS011;38802;50.198;19.796;2022-12-29T05:14:31;4.20;;;3.80;;
52934;SDS011;38802;50.198;19.796;2022-12-29T05:17:00;4.60;;;3.70;;
52934;SDS011;38802;50.198;19.796;2022-12-29T05:19:28;5.10;;;3.40;;
52934;SDS011;38802;50.198;19.796;2022-12-29T05:21:56;3.60;;;3.30;;
52934;SDS011;38802;50.198;19.796;2022-12-29T05:24:25;4.70;;;3.90;;
52934;SDS011;38802;50.198;19.796;2022-12-29T05:26:57;3.70;;;3.40;;
52934;SDS011;38802;50.198;19.796;2022-12-29T05:29:38;6.80;;;4.30;;
52934;SDS011;38802;50.198;19.796;2022-12-29T05:32:06;4.20;;;3.70;;
52934;SDS011;38802;50.198;19.796;2022-12-29T05:34:35;5.70;;;3.70;;
52934;SDS011;38802;50.198;19.796;2022-12-29T05:37:04;5.20;;;4.00;;
52934;SDS011;38802;50.198;19.796;2022-12-29T05:39:32;4.40;;;4.00;;
52934;SDS011;38802;50.198;19.796;2022-12-29T05:42:02;5.50;;;3.30;;
52934;SDS011;38802;50.198;19.796;2022-12-29T05:44:43;4.40;;;3.60;;
52934;SDS011;38802;50.198;19.796;2022-12-29T05:47:24;4.50;;;3.20;;
52934;SDS011;38802;50.198;19.796;2022-12-29T05:50:08;5.30;;;4.20;;
52934;SDS011;38802;50.198;19.796;2022-12-29T05:52:59;4.70;;;3.90;;
52934;SDS011;38802;50.198;19.796;2022-12-29T05:55:27;8.40;;;5.00;;
52934;SDS011;38802;50.198;19.796;2022-12-29T05:57:56;6.40;;;3.90;;
52934;SDS011;38802;50.198;19.796;2022-12-29T06:00:24;5.80;;;3.90;;
52934;SDS011;38802;50.198;19.796;2022-12-29T06:02:53;3.80;;;3.20;;
52934;SDS011;38802;50.198;19.796;2022-12-29T06:05:22;3.80;;;3.10;;
52934;SDS011;38802;50.198;19.796;2022-12-29T06:07:50;4.40;;;3.50;;
52934;SDS011;38802;50.198;19.796;2022-12-29T06:10:18;5.30;;;3.80;;
52934;SDS011;38802;50.198;19.796;2022-12-29T06:13:02;3.60;;;3.30;;
52934;SDS011;38802;50.198;19.796;2022-12-29T06:15:33;3.60;;;3.20;;
52934;SDS011;38802;50.198;19.796;2022-12-29T06:18:05;3.30;;;3.00;;
52934;SDS011;38802;50.198;19.796;2022-12-29T06:20:34;4.30;;;3.80;;
52934;SDS011;38802;50.198;19.796;2022-12-29T06:23:05;4.60;;;3.40;;
52934;SDS011;38802;50.198;19.796;2022-12-29T06:25:33;6.90;;;3.90;;
52934;SDS011;38802;50.198;19.796;2022-12-29T06:28:04;5.10;;;3.80;;
52934;SDS011;38802;50.198;19.796;2022-12-29T06:30:33;4.00;;;3.70;;
52934;SDS011;38802;50.198;19.796;2022-12-29T06:33:02;4.00;;;3.40;;
52934;SDS011;38802;50.198;19.796;2022-12-29T06:35:31;5.00;;;4.60;;
52934;SDS011;38802;50.198;19.796;2022-12-29T06:38:00;7.40;;;3.60;;
52934;SDS011;38802;50.198;19.796;2022-12-29T06:40:28;3.80;;;3.40;;
52934;SDS011;38802;50.198;19.796;2022-12-29T06:43:20;4.20;;;3.70;;
52934;SDS011;38802;50.198;19.796;2022-12-29T06:46:18;5.00;;;4.00;;
52934;SDS011;38802;50.198;19.796;2022-12-29T06:48:46;5.80;;;3.90;;
52934;SDS011;38802;50.198;19.796;2022-12-29T06:51:15;7.00;;;3.80;;
52934;SDS011;38802;50.198;19.796;2022-12-29T06:53:44;3.90;;;3.30;;
52934;SDS011;38802;50.198;19.796;2022-12-29T06:56:12;4.90;;;3.90;;
52934;SDS011;38802;50.198;19.796;2022-12-29T06:58:40;4.00;;;3.50;;
52934;SDS011;38802;50.198;19.796;2022-12-29T07:01:08;6.70;;;3.80;;
52934;SDS011;38802;50.198;19.796;2022-12-29T07:03:36;6.00;;;3.70;;
52934;SDS011;38802;50.198;19.796;2022-12-29T07:06:05;3.80;;;3.40;;
52934;SDS011;38802;50.198;19.796;2022-12-29T07:08:34;3.60;;;3.30;;
52934;SDS011;38802;50.198;19.796;2022-12-29T07:11:02;3.90;;;3.50;;
52934;SDS011;38802;50.198;19.796;2022-12-29T07:13:30;5.20;;;3.60;;
52934;SDS011;38802;50.198;19.796;2022-12-29T07:15:58;5.10;;;3.60;;
52934;SDS011;38802;50.198;19.796;2022-12-29T07:18:27;5.70;;;4.70;;
52934;SDS011;38802;50.198;19.796;2022-12-29T07:20:55;4.00;;;3.40;;
52934;SDS011;38802;50.198;19.796;2022-12-29T07:23:23;9.80;;;4.30;;
52934;SDS011;38802;50.198;19.796;2022-12-29T07:26:01;6.90;;;5.20;;
52934;SDS011;38802;50.198;19.796;2022-12-29T07:28:31;4.90;;;4.10;;
52934;SDS011;38802;50.198;19.796;2022-12-29T07:31:00;6.30;;;3.90;;
52934;SDS011;38802;50.198;19.796;2022-12-29T07:33:29;7.10;;;4.00;;
52934;SDS011;38802;50.198;19.796;2022-12-29T07:35:59;5.30;;;3.70;;
52934;SDS011;38802;50.198;19.796;2022-12-29T07:38:28;7.10;;;4.80;;
52934;SDS011;38802;50.198;19.796;2022-12-29T07:40:57;4.90;;;4.20;;
52934;SDS011;38802;50.198;19.796;2022-12-29T07:43:26;6.10;;;4.40;;
52934;SDS011;38802;50.198;19.796;2022-12-29T07:46:24;5.10;;;4.60;;
52934;SDS011;38802;50.198;19.796;2022-12-29T07:49:12;8.60;;;4.30;;
52934;SDS011;38802;50.198;19.796;2022-12-29T07:51:40;6.90;;;4.40;;
52934;SDS011;38802;50.198;19.796;2022-12-29T07:54:09;5.10;;;3.40;;
52934;SDS011;38802;50.198;19.796;2022-12-29T07:56:37;6.60;;;4.20;;
52934;SDS011;38802;50.198;19.796;2022-12-29T07:59:06;4.70;;;4.10;;
52934;SDS011;38802;50.198;19.796;2022-12-29T08:01:34;6.90;;;4.40;;
52934;SDS011;38802;50.198;19.796;2022-12-29T08:04:04;6.50;;;4.30;;
52934;SDS011;38802;50.198;19.796;2022-12-29T08:06:33;7.20;;;5.10;;
52934;SDS011;38802;50.198;19.796;2022-12-29T08:09:01;5.10;;;4.50;;
52934;SDS011;38802;50.198;19.796;2022-12-29T08:11:41;5.90;;;4.60;;
52934;SDS011;38802;50.198;19.796;2022-12-29T08:14:11;7.00;;;5.30;;
52934;SDS011;38802;50.198;19.796;2022-12-29T08:16:39;5.40;;;4.10;;
52934;SDS011;38802;50.198;19.796;2022-12-29T08:19:10;7.30;;;5.00;;
52934;SDS011;38802;50.198;19.796;2022-12-29T08:21:39;5.20;;;3.90;;
52934;SDS011;38802;50.198;19.796;2022-12-29T08:24:08;6.30;;;4.30;;
52934;SDS011;38802;50.198;19.796;2022-12-29T08:26:37;5.10;;;3.90;;
52934;SDS011;38802;50.198;19.796;2022-12-29T08:29:05;6.50;;;4.70;;
52934;SDS011;38802;50.198;19.796;2022-12-29T08:31:34;6.10;;;5.00;;
52934;SDS011;38802;50.198;19.796;2022-12-29T08:34:02;7.10;;;4.90;;
52934;SDS011;38802;50.198;19.796;2022-12-29T08:36:31;7.70;;;5.10;;
52934;SDS011;38802;50.198;19.796;2022-12-29T08:39:00;6.50;;;5.20;;
52934;SDS011;38802;50.198;19.796;2022-12-29T08:41:28;7.20;;;4.40;;
52934;SDS011;38802;50.198;19.796;2022-12-29T08:43:56;5.10;;;3.80;;
52934;SDS011;38802;50.198;19.796;2022-12-29T08:46:25;6.60;;;4.80;;
52934;SDS011;38802;50.198;19.796;2022-12-29T08:48:53;6.80;;;4.80;;
52934;SDS011;38802;50.198;19.796;2022-12-29T08:51:22;10.30;;;5.90;;
52934;SDS011;38802;50.198;19.796;2022-12-29T08:53:52;14.00;;;6.30;;
52934;SDS011;38802;50.198;19.796;2022-12-29T08:56:21;7.50;;;5.20;;
52934;SDS011;38802;50.198;19.796;2022-12-29T08:58:51;6.10;;;5.50;;
52934;SDS011;38802;50.198;19.796;2022-12-29T09:01:23;5.90;;;4.70;;
52934;SDS011;38802;50.198;19.796;2022-12-29T09:03:53;5.60;;;4.40;;
52934;SDS011;38802;50.198;19.796;2022-12-29T09:06:42;4.70;;;4.10;;
52934;SDS011;38802;50.198;19.796;2022-12-29T09:09:12;3.90;;;3.50;;
52934;SDS011;38802;50.198;19.796;2022-12-29T09:11:40;5.40;;;4.30;;
52934;SDS011;38802;50.198;19.796;2022-12-29T09:14:09;6.30;;;4.50;;
52934;SDS011;38802;50.198;19.796;2022-12-29T09:16:37;5.60;;;3.80;;
52934;SDS011;38802;50.198;19.796;2022-12-29T09:19:06;7.80;;;4.70;;
52934;SDS011;38802;50.198;19.796;2022-12-29T09:21:34;8.30;;;5.30;;
52934;SDS011;38802;50.198;19.796;2022-12-29T09:24:02;9.50;;;5.90;;
52934;SDS011;38802;50.198;19.796;2022-12-29T09:26:30;5.70;;;4.80;;
52934;SDS011;38802;50.198;19.796;2022-12-29T09:28:58;10.20;;;4.20;;
52934;SDS011;38802;50.198;19.796;2022-12-29T09:31:26;5.10;;;4.60;;
52934;SDS011;38802;50.198;19.796;2022-12-29T09:33:55;6.00;;;4.60;;
52934;SDS011;38802;50.198;19.796;2022-12-29T09:36:23;7.30;;;4.70;;
52934;SDS011;38802;50.198;19.796;2022-12-29T09:38:52;4.90;;;4.40;;
52934;SDS011;38802;50.198;19.796;2022-12-29T09:41:26;4.30;;;3.90;;
52934;SDS011;38802;50.198;19.796;2022-12-29T09:44:06;4.40;;;4.00;;
52934;SDS011;38802;50.198;19.796;2022-12-29T09:46:41;4.60;;;4.00;;
52934;SDS011;38802;50.198;19.796;2022-12-29T09:52:05;4.60;;;4.20;;
52934;SDS011;38802;50.198;19.796;2022-12-29T09:54:51;5.80;;;5.20;;
52934;SDS011;38802;50.198;19.796;2022-12-29T10:03:26;5.80;;;5.20;;
52934;SDS011;38802;50.198;19.796;2022-12-29T10:06:25;6.70;;;4.30;;
52934;SDS011;38802;50.198;19.796;2022-12-29T10:15:38;5.90;;;5.30;;
52934;SDS011;38802;50.198;19.796;2022-12-29T10:21:13;6.40;;;4.70;;
52934;SDS011;38802;50.198;19.796;2022-12-29T10:24:25;5.90;;;4.70;;
52934;SDS011;38802;50.198;19.796;2022-12-29T10:27:10;8.80;;;5.80;;
52934;SDS011;38802;50.198;19.796;2022-12-29T10:29:40;6.30;;;5.00;;
52934;SDS011;38802;50.198;19.796;2022-12-29T10:38:03;7.30;;;5.00;;
52934;SDS011;38802;50.198;19.796;2022-12-29T10:43:59;10.60;;;5.80;;
52934;SDS011;38802;50.198;19.796;2022-12-29T10:46:29;8.70;;;4.90;;
52934;SDS011;38802;50.198;19.796;2022-12-29T10:49:02;6.60;;;5.40;;
52934;SDS011;38802;50.198;19.796;2022-12-29T10:51:41;7.00;;;5.10;;
52934;SDS011;38802;50.198;19.796;2022-12-29T10:56:54;7.20;;;5.30;;
52934;SDS011;38802;50.198;19.796;2022-12-29T10:59:31;7.30;;;5.20;;
52934;SDS011;38802;50.198;19.796;2022-12-29T11:07:18;7.90;;;5.20;;
52934;SDS011;38802;50.198;19.796;2022-12-29T11:09:54;5.50;;;4.90;;
52934;SDS011;38802;50.198;19.796;2022-12-29T11:12:26;7.20;;;5.30;;
52934;SDS011;38802;50.198;19.796;2022-12-29T11:17:47;6.10;;;5.00;;
52934;SDS011;38802;50.198;19.796;2022-12-29T11:20:27;8.30;;;5.20;;
52934;SDS011;38802;50.198;19.796;2022-12-29T11:22:58;6.90;;;5.20;;
52934;SDS011;38802;50.198;19.796;2022-12-29T11:25:27;7.70;;;5.40;;
52934;SDS011;38802;50.198;19.796;2022-12-29T11:28:03;16.10;;;5.00;;
52934;SDS011;38802;50.198;19.796;2022-12-29T11:30:44;9.20;;;4.70;;
52934;SDS011;38802;50.198;19.796;2022-12-29T11:33:12;5.80;;;4.40;;
52934;SDS011;38802;50.198;19.796;2022-12-29T11:35:41;6.60;;;4.80;;
52934;SDS011;38802;50.198;19.796;2022-12-29T11:38:22;5.70;;;4.60;;
52934;SDS011;38802;50.198;19.796;2022-12-29T11:40:53;6.40;;;5.10;;
52934;SDS011;38802;50.198;19.796;2022-12-29T11:43:28;5.00;;;4.50;;
52934;SDS011;38802;50.198;19.796;2022-12-29T11:46:04;5.10;;;4.30;;
52934;SDS011;38802;50.198;19.796;2022-12-29T11:48:43;5.50;;;4.40;;
52934;SDS011;38802;50.198;19.796;2022-12-29T11:51:20;6.90;;;4.90;;
52934;SDS011;38802;50.198;19.796;2022-12-29T11:53:56;4.50;;;4.10;;
52934;SDS011;38802;50.198;19.796;2022-12-29T11:56:36;5.20;;;4.40;;
52934;SDS011;38802;50.198;19.796;2022-12-29T12:07:52;8.10;;;4.70;;
52934;SDS011;38802;50.198;19.796;2022-12-29T12:10:31;5.40;;;4.30;;
52934;SDS011;38802;50.198;19.796;2022-12-29T12:13:25;6.20;;;4.60;;
52934;SDS011;38802;50.198;19.796;2022-12-29T12:18:58;8.30;;;4.70;;
52934;SDS011;38802;50.198;19.796;2022-12-29T12:21:38;5.30;;;4.80;;
52934;SDS011;38802;50.198;19.796;2022-12-29T12:27:09;7.80;;;5.40;;
52934;SDS011;38802;50.198;19.796;2022-12-29T12:32:45;6.30;;;5.50;;
52934;SDS011;38802;50.198;19.796;2022-12-29T12:35:29;5.10;;;4.60;;
52934;SDS011;38802;50.198;19.796;2022-12-29T13:00:41;5.80;;;4.80;;
52934;SDS011;38802;50.198;19.796;2022-12-29T13:03:23;7.80;;;5.10;;
52934;SDS011;38802;50.198;19.796;2022-12-29T13:09:16;6.00;;;5.30;;
52934;SDS011;38802;50.198;19.796;2022-12-29T13:22:38;7.00;;;5.50;;
52934;SDS011;38802;50.198;19.796;2022-12-29T13:36:19;9.10;;;6.80;;
52934;SDS011;38802;50.198;19.796;2022-12-29T13:39:08;10.30;;;6.50;;
52934;SDS011;38802;50.198;19.796;2022-12-29T13:41:51;8.30;;;5.80;;
52934;SDS011;38802;50.198;19.796;2022-12-29T13:44:24;7.60;;;5.20;;
52934;SDS011;38802;50.198;19.796;2022-12-29T13:50:05;7.80;;;5.40;;
52934;SDS011;38802;50.198;19.796;2022-12-29T13:52:54;6.80;;;5.70;;
52934;SDS011;38802;50.198;19.796;2022-12-29T13:55:39;9.40;;;5.90;;
52934;SDS011;38802;50.198;19.796;2022-12-29T13:58:18;12.60;;;7.00;;
52934;SDS011;38802;50.198;19.796;2022-12-29T14:03:24;6.80;;;6.10;;
52934;SDS011;38802;50.198;19.796;2022-12-29T14:06:10;9.70;;;6.50;;
52934;SDS011;38802;50.198;19.796;2022-12-29T14:08:47;9.20;;;6.90;;
52934;SDS011;38802;50.198;19.796;2022-12-29T14:11:17;9.70;;;6.70;;
52934;SDS011;38802;50.198;19.796;2022-12-29T14:13:50;11.60;;;6.80;;
52934;SDS011;38802;50.198;19.796;2022-12-29T14:16:34;11.90;;;7.90;;
52934;SDS011;38802;50.198;19.796;2022-12-29T14:19:11;13.30;;;8.60;;
52934;SDS011;38802;50.198;19.796;2022-12-29T14:21:52;14.90;;;9.00;;
52934;SDS011;38802;50.198;19.796;2022-12-29T14:24:28;15.40;;;9.50;;
52934;SDS011;38802;50.198;19.796;2022-12-29T14:29:48;15.10;;;10.60;;
52934;SDS011;38802;50.198;19.796;2022-12-29T14:34:52;15.60;;;10.60;;
52934;SDS011;38802;50.198;19.796;2022-12-29T14:37:23;12.00;;;7.70;;
52934;SDS011;38802;50.198;19.796;2022-12-29T14:42:48;15.40;;;9.00;;
52934;SDS011;38802;50.198;19.796;2022-12-29T14:47:50;17.40;;;10.90;;
52934;SDS011;38802;50.198;19.796;2022-12-29T14:52:53;13.10;;;9.50;;
52934;SDS011;38802;50.198;19.796;2022-12-29T14:55:44;12.50;;;9.90;;
52934;SDS011;38802;50.198;19.796;2022-12-29T15:00:57;13.60;;;9.80;;
52934;SDS011;38802;50.198;19.796;2022-12-29T15:03:35;17.80;;;9.80;;
52934;SDS011;38802;50.198;19.796;2022-12-29T15:06:15;15.50;;;10.50;;
52934;SDS011;38802;50.198;19.796;2022-12-29T15:08:54;16.30;;;10.60;;
52934;SDS011;38802;50.198;19.796;2022-12-29T15:14:23;26.40;;;13.00;;
52934;SDS011;38802;50.198;19.796;2022-12-29T15:16:56;27.90;;;15.40;;
52934;SDS011;38802;50.198;19.796;2022-12-29T15:19:25;26.50;;;15.90;;
52934;SDS011;38802;50.198;19.796;2022-12-29T15:21:55;26.60;;;14.80;;
52934;SDS011;38802;50.198;19.796;2022-12-29T15:24:24;22.10;;;13.60;;
52934;SDS011;38802;50.198;19.796;2022-12-29T15:26:53;20.70;;;11.70;;
52934;SDS011;38802;50.198;19.796;2022-12-29T15:29:29;16.50;;;10.90;;
52934;SDS011;38802;50.198;19.796;2022-12-29T15:34:57;17.40;;;9.80;;
52934;SDS011;38802;50.198;19.796;2022-12-29T15:37:37;15.50;;;11.00;;
52934;SDS011;38802;50.198;19.796;2022-12-29T15:40:05;20.10;;;12.00;;
52934;SDS011;38802;50.198;19.796;2022-12-29T15:42:59;15.00;;;10.90;;
52934;SDS011;38802;50.198;19.796;2022-12-29T15:45:32;15.90;;;10.70;;
52934;SDS011;38802;50.198;19.796;2022-12-29T15:48:03;18.00;;;11.00;;
52934;SDS011;38802;50.198;19.796;2022-12-29T15:50:34;16.00;;;9.80;;
52934;SDS011;38802;50.198;19.796;2022-12-29T15:53:09;14.30;;;9.90;;
52934;SDS011;38802;50.198;19.796;2022-12-29T15:55:39;16.70;;;9.10;;
52934;SDS011;38802;50.198;19.796;2022-12-29T16:01:16;16.30;;;10.50;;
52934;SDS011;38802;50.198;19.796;2022-12-29T16:06:29;16.90;;;9.60;;
52934;SDS011;38802;50.198;19.796;2022-12-29T16:11:30;18.60;;;11.40;;
52934;SDS011;38802;50.198;19.796;2022-12-29T16:14:07;20.70;;;12.90;;
52934;SDS011;38802;50.198;19.796;2022-12-29T16:16:42;21.30;;;12.50;;
52934;SDS011;38802;50.198;19.796;2022-12-29T16:19:17;17.00;;;10.00;;
52934;SDS011;38802;50.198;19.796;2022-12-29T16:22:11;13.60;;;9.40;;
52934;SDS011;38802;50.198;19.796;2022-12-29T16:24:45;21.50;;;10.80;;
52934;SDS011;38802;50.198;19.796;2022-12-29T16:27:16;14.10;;;9.00;;
52934;SDS011;38802;50.198;19.796;2022-12-29T16:30:02;15.10;;;9.60;;
52934;SDS011;38802;50.198;19.796;2022-12-29T16:32:33;13.30;;;9.70;;
52934;SDS011;38802;50.198;19.796;2022-12-29T16:35:16;13.60;;;10.00;;
52934;SDS011;38802;50.198;19.796;2022-12-29T16:41:03;11.70;;;10.50;;
52934;SDS011;38802;50.198;19.796;2022-12-29T16:43:32;17.20;;;10.90;;
52934;SDS011;38802;50.198;19.796;2022-12-29T16:46:15;14.00;;;9.10;;
52934;SDS011;38802;50.198;19.796;2022-12-29T16:48:52;16.00;;;9.90;;
52934;SDS011;38802;50.198;19.796;2022-12-29T16:51:28;17.20;;;11.00;;
52934;SDS011;38802;50.198;19.796;2022-12-29T16:53:59;16.60;;;10.00;;
52934;SDS011;38802;50.198;19.796;2022-12-29T16:56:30;13.80;;;9.60;;
52934;SDS011;38802;50.198;19.796;2022-12-29T16:59:03;17.40;;;10.50;;
52934;SDS011;38802;50.198;19.796;2022-12-29T17:01:37;15.90;;;9.40;;
52934;SDS011;38802;50.198;19.796;2022-12-29T17:04:11;14.70;;;10.30;;
52934;SDS011;38802;50.198;19.796;2022-12-29T17:06:41;11.70;;;9.40;;
52934;SDS011;38802;50.198;19.796;2022-12-29T17:09:17;16.10;;;8.70;;
52934;SDS011;38802;50.198;19.796;2022-12-29T17:11:47;17.20;;;10.80;;
52934;SDS011;38802;50.198;19.796;2022-12-29T17:19:56;14.70;;;10.40;;
52934;SDS011;38802;50.198;19.796;2022-12-29T17:22:30;11.60;;;10.10;;
52934;SDS011;38802;50.198;19.796;2022-12-29T17:24:59;13.50;;;9.90;;
52934;SDS011;38802;50.198;19.796;2022-12-29T17:30:12;12.30;;;8.90;;
52934;SDS011;38802;50.198;19.796;2022-12-29T17:32:45;17.50;;;10.10;;
52934;SDS011;38802;50.198;19.796;2022-12-29T17:35:21;16.90;;;9.90;;
52934;SDS011;38802;50.198;19.796;2022-12-29T17:37:50;15.40;;;9.50;;
52934;SDS011;38802;50.198;19.796;2022-12-29T17:40:19;12.90;;;8.40;;
52934;SDS011;38802;50.198;19.796;2022-12-29T17:42:51;16.90;;;8.70;;
52934;SDS011;38802;50.198;19.796;2022-12-29T17:45:22;13.70;;;9.30;;
52934;SDS011;38802;50.198;19.796;2022-12-29T17:47:53;14.10;;;8.70;;
52934;SDS011;38802;50.198;19.796;2022-12-29T17:50:23;11.40;;;8.80;;
52934;SDS011;38802;50.198;19.796;2022-12-29T17:52:54;10.80;;;7.60;;
52934;SDS011;38802;50.198;19.796;2022-12-29T17:55:28;15.10;;;9.90;;
52934;SDS011;38802;50.198;19.796;2022-12-29T17:58:12;11.00;;;7.70;;
52934;SDS011;38802;50.198;19.796;2022-12-29T18:00:42;13.70;;;9.00;;
52934;SDS011;38802;50.198;19.796;2022-12-29T18:03:24;15.10;;;9.10;;
52934;SDS011;38802;50.198;19.796;2022-12-29T18:05:55;15.60;;;9.20;;
52934;SDS011;38802;50.198;19.796;2022-12-29T18:08:24;14.40;;;8.30;;
52934;SDS011;38802;50.198;19.796;2022-12-29T18:10:55;15.70;;;8.40;;
52934;SDS011;38802;50.198;19.796;2022-12-29T18:13:25;13.80;;;9.50;;
52934;SDS011;38802;50.198;19.796;2022-12-29T18:16:10;11.20;;;8.50;;
52934;SDS011;38802;50.198;19.796;2022-12-29T18:18:40;15.80;;;9.70;;
52934;SDS011;38802;50.198;19.796;2022-12-29T18:21:21;14.90;;;9.30;;
52934;SDS011;38802;50.198;19.796;2022-12-29T18:23:51;14.20;;;10.30;;